sensor_id;sensor_type;location;lat;lon;timestamp;pressure;altitude;pressure_sealevel;temperature;humidity
16613;BME280;8419;52.358;9.752;2024-01-07T00:02:05;101080.00;;;9.42;45.36
16613;BME280;8419;52.358;9.752;2024-01-07T00:04:50;101075.00;;;9.46;45.26
16613;BME280;8419;52.358;9.752;2024-01-07T00:07:36;101088.00;;;9.47;45.23
16613;BME280;8419;52.358;9.752;2024-01-07T00:10:23;101086.00;;;9.49;45.24
16613;BME280;8419;52.358;9.752;2024-01-07T00:13:08;101082.00;;;9.50;45.22
16613;BME280;8419;52.358;9.752;2024-01-07T00:15:53;101088.00;;;9.46;45.33
16613;BME280;8419;52.358;9.752;2024-01-07T00:18:41;101094.00;;;9.49;45.29
16613;BME280;8419;52.358;9.752;2024-01-07T00:21:27;101097.00;;;9.49;45.28
16613;BME280;8419;52.358;9.752;2024-01-07T00:24:13;101093.00;;;9.47;45.26
16613;BME280;8419;52.358;9.752;2024-01-07T00:27:00;101094.00;;;9.41;45.30
16613;BME280;8419;52.358;9.752;2024-01-07T00:29:45;101093.00;;;9.40;45.30
16613;BME280;8419;52.358;9.752;2024-01-07T00:32:31;101097.00;;;9.46;45.23
16613;BME280;8419;52.358;9.752;2024-01-07T00:35:16;101105.00;;;9.38;45.34
16613;BME280;8419;52.358;9.752;2024-01-07T00:38:04;101105.00;;;9.38;45.34
16613;BME280;8419;52.358;9.752;2024-01-07T00:40:51;101100.00;;;9.38;45.33
16613;BME280;8419;52.358;9.752;2024-01-07T00:43:36;101107.00;;;9.39;45.29
16613;BME280;8419;52.358;9.752;2024-01-07T00:46:22;101113.00;;;9.40;45.25
16613;BME280;8419;52.358;9.752;2024-01-07T00:49:07;101121.00;;;9.38;45.26
16613;BME280;8419;52.358;9.752;2024-01-07T00:51:53;101114.00;;;9.31;45.29
16613;BME280;8419;52.358;9.752;2024-01-07T00:54:38;101116.00;;;9.29;45.28
16613;BME280;8419;52.358;9.752;2024-01-07T00:57:23;101124.00;;;9.25;45.32
16613;BME280;8419;52.358;9.752;2024-01-07T01:00:11;101135.00;;;9.23;45.36
16613;BME280;8419;52.358;9.752;2024-01-07T01:02:57;101135.00;;;9.22;45.36
16613;BME280;8419;52.358;9.752;2024-01-07T01:05:45;101134.00;;;9.21;45.30
16613;BME280;8419;52.358;9.752;2024-01-07T01:08:30;101140.00;;;9.20;45.31
16613;BME280;8419;52.358;9.752;2024-01-07T01:11:17;101148.00;;;9.18;45.30
16613;BME280;8419;52.358;9.752;2024-01-07T01:14:03;101155.00;;;9.18;45.32
16613;BME280;8419;52.358;9.752;2024-01-07T01:16:48;101149.00;;;9.16;45.28
16613;BME280;8419;52.358;9.752;2024-01-07T01:19:33;101157.00;;;9.16;45.31
16613;BME280;8419;52.358;9.752;2024-01-07T01:22:19;101156.00;;;9.17;45.28
16613;BME280;8419;52.358;9.752;2024-01-07T01:25:07;101158.00;;;9.14;45.39
16613;BME280;8419;52.358;9.752;2024-01-07T01:27:53;101167.00;;;9.13;45.34
16613;BME280;8419;52.358;9.752;2024-01-07T01:30:41;101169.00;;;9.11;45.32
16613;BME280;8419;52.358;9.752;2024-01-07T01:33:28;101176.00;;;9.12;45.26
16613;BME280;8419;52.358;9.752;2024-01-07T01:36:13;101175.00;;;9.11;45.24
16613;BME280;8419;52.358;9.752;2024-01-07T01:38:58;101183.00;;;9.13;45.23
16613;BME280;8419;52.358;9.752;2024-01-07T01:41:45;101177.00;;;9.17;45.08
16613;BME280;8419;52.358;9.752;2024-01-07T01:44:31;101181.00;;;9.15;45.17
16613;BME280;8419;52.358;9.752;2024-01-07T01:47:16;101189.00;;;9.10;45.16
16613;BME280;8419;52.358;9.752;2024-01-07T01:50:02;101201.00;;;9.08;45.17
16613;BME280;8419;52.358;9.752;2024-01-07T01:52:48;101209.00;;;9.07;45.18
16613;BME280;8419;52.358;9.752;2024-01-07T01:55:34;101206.00;;;9.11;45.08
16613;BME280;8419;52.358;9.752;2024-01-07T01:58:21;101211.00;;;9.14;45.02
16613;BME280;8419;52.358;9.752;2024-01-07T02:01:07;101220.00;;;9.13;44.99
16613;BME280;8419;52.358;9.752;2024-01-07T02:03:52;101212.00;;;9.11;44.96
16613;BME280;8419;52.358;9.752;2024-01-07T02:06:39;101220.00;;;9.10;44.99
16613;BME280;8419;52.358;9.752;2024-01-07T02:09:24;101225.00;;;9.13;44.94
16613;BME280;8419;52.358;9.752;2024-01-07T02:12:09;101218.00;;;9.12;44.88
16613;BME280;8419;52.358;9.752;2024-01-07T02:14:56;101226.00;;;9.04;44.96
16613;BME280;8419;52.358;9.752;2024-01-07T02:17:41;101239.00;;;8.97;45.00
16613;BME280;8419;52.358;9.752;2024-01-07T02:20:27;101240.00;;;8.94;45.00
16613;BME280;8419;52.358;9.752;2024-01-07T02:23:13;101244.00;;;8.88;45.02
16613;BME280;8419;52.358;9.752;2024-01-07T02:25:59;101243.00;;;8.80;45.12
16613;BME280;8419;52.358;9.752;2024-01-07T02:28:47;101245.00;;;8.75;45.19
16613;BME280;8419;52.358;9.752;2024-01-07T02:31:32;101240.00;;;8.70;45.20
16613;BME280;8419;52.358;9.752;2024-01-07T02:34:17;101247.00;;;8.73;45.17
16613;BME280;8419;52.358;9.752;2024-01-07T02:37:03;101252.00;;;8.79;45.03
16613;BME280;8419;52.358;9.752;2024-01-07T02:39:48;101258.00;;;8.83;44.89
16613;BME280;8419;52.358;9.752;2024-01-07T02:42:34;101248.00;;;8.83;44.84
16613;BME280;8419;52.358;9.752;2024-01-07T02:45:19;101256.00;;;8.81;44.87
16613;BME280;8419;52.358;9.752;2024-01-07T02:48:05;101257.00;;;8.79;44.88
16613;BME280;8419;52.358;9.752;2024-01-07T02:50:51;101264.00;;;8.80;44.89
16613;BME280;8419;52.358;9.752;2024-01-07T02:53:36;101266.00;;;8.84;44.85
16613;BME280;8419;52.358;9.752;2024-01-07T02:56:21;101261.00;;;8.81;44.84
16613;BME280;8419;52.358;9.752;2024-01-07T02:59:06;101265.00;;;8.79;44.89
16613;BME280;8419;52.358;9.752;2024-01-07T03:01:53;101276.00;;;8.77;44.91
16613;BME280;8419;52.358;9.752;2024-01-07T03:04:40;101277.00;;;8.76;44.91
16613;BME280;8419;52.358;9.752;2024-01-07T03:07:26;101284.00;;;8.70;44.97
16613;BME280;8419;52.358;9.752;2024-01-07T03:10:12;101284.00;;;8.70;44.92
16613;BME280;8419;52.358;9.752;2024-01-07T03:12:57;101289.00;;;8.68;44.92
16613;BME280;8419;52.358;9.752;2024-01-07T03:15:43;101287.00;;;8.70;44.88
16613;BME280;8419;52.358;9.752;2024-01-07T03:18:29;101291.00;;;8.71;44.87
16613;BME280;8419;52.358;9.752;2024-01-07T03:21:18;101281.00;;;8.71;44.83
16613;BME280;8419;52.358;9.752;2024-01-07T03:24:05;101292.00;;;8.78;44.72
16613;BME280;8419;52.358;9.752;2024-01-07T03:26:50;101296.00;;;8.74;44.79
16613;BME280;8419;52.358;9.752;2024-01-07T03:29:36;101298.00;;;8.78;44.55
16613;BME280;8419;52.358;9.752;2024-01-07T03:32:22;101294.00;;;9.07;43.97
16613;BME280;8419;52.358;9.752;2024-01-07T03:35:08;101297.00;;;9.21;43.63
16613;BME280;8419;52.358;9.752;2024-01-07T03:37:54;101301.00;;;9.23;43.55
16613;BME280;8419;52.358;9.752;2024-01-07T03:40:40;101306.00;;;9.23;43.49
16613;BME280;8419;52.358;9.752;2024-01-07T03:43:26;101313.00;;;9.21;43.52
16613;BME280;8419;52.358;9.752;2024-01-07T03:46:11;101320.00;;;8.94;43.78
16613;BME280;8419;52.358;9.752;2024-01-07T03:48:56;101317.00;;;9.10;43.74
16613;BME280;8419;52.358;9.752;2024-01-07T03:51:41;101320.00;;;9.16;43.52
16613;BME280;8419;52.358;9.752;2024-01-07T03:54:26;101324.00;;;8.70;44.40
16613;BME280;8419;52.358;9.752;2024-01-07T03:57:11;101328.00;;;8.65;44.62
16613;BME280;8419;52.358;9.752;2024-01-07T03:59:57;101331.00;;;8.62;44.64
16613;BME280;8419;52.358;9.752;2024-01-07T04:02:42;101329.00;;;8.58;44.71
16613;BME280;8419;52.358;9.752;2024-01-07T04:05:29;101336.00;;;8.59;44.66
16613;BME280;8419;52.358;9.752;2024-01-07T04:08:15;101343.00;;;8.56;44.68
16613;BME280;8419;52.358;9.752;2024-01-07T04:11:02;101349.00;;;8.58;44.62
16613;BME280;8419;52.358;9.752;2024-01-07T04:13:48;101352.00;;;8.57;44.64
16613;BME280;8419;52.358;9.752;2024-01-07T04:16:33;101351.00;;;8.57;44.59
16613;BME280;8419;52.358;9.752;2024-01-07T04:19:19;101354.00;;;8.58;44.54
16613;BME280;8419;52.358;9.752;2024-01-07T04:22:04;101365.00;;;8.58;44.45
16613;BME280;8419;52.358;9.752;2024-01-07T04:24:50;101363.00;;;8.54;44.45
16613;BME280;8419;52.358;9.752;2024-01-07T04:27:35;101369.00;;;8.55;44.48
16613;BME280;8419;52.358;9.752;2024-01-07T04:30:21;101366.00;;;8.61;44.38
16613;BME280;8419;52.358;9.752;2024-01-07T04:33:07;101376.00;;;8.60;44.37
16613;BME280;8419;52.358;9.752;2024-01-07T04:35:52;101374.00;;;8.61;44.33
16613;BME280;8419;52.358;9.752;2024-01-07T04:38:37;101384.00;;;8.57;44.38
16613;BME280;8419;52.358;9.752;2024-01-07T04:41:23;101387.00;;;8.59;44.26
16613;BME280;8419;52.358;9.752;2024-01-07T04:44:11;101387.00;;;8.61;44.26
16613;BME280;8419;52.358;9.752;2024-01-07T04:46:56;101390.00;;;8.61;44.24
16613;BME280;8419;52.358;9.752;2024-01-07T04:49:41;101396.00;;;8.61;44.18
16613;BME280;8419;52.358;9.752;2024-01-07T04:52:26;101398.00;;;8.63;44.12
16613;BME280;8419;52.358;9.752;2024-01-07T04:55:12;101398.00;;;8.64;44.10
16613;BME280;8419;52.358;9.752;2024-01-07T04:57:58;101407.00;;;8.65;44.06
16613;BME280;8419;52.358;9.752;2024-01-07T05:00:43;101405.00;;;8.64;44.04
16613;BME280;8419;52.358;9.752;2024-01-07T05:03:28;101412.00;;;8.58;44.09
16613;BME280;8419;52.358;9.752;2024-01-07T05:06:14;101410.00;;;8.51;44.15
16613;BME280;8419;52.358;9.752;2024-01-07T05:09:00;101410.00;;;8.54;44.10
16613;BME280;8419;52.358;9.752;2024-01-07T05:11:45;101416.00;;;8.52;44.07
16613;BME280;8419;52.358;9.752;2024-01-07T05:14:30;101423.00;;;8.56;43.95
16613;BME280;8419;52.358;9.752;2024-01-07T05:17:16;101421.00;;;8.51;44.01
16613;BME280;8419;52.358;9.752;2024-01-07T05:20:01;101431.00;;;8.54;43.91
16613;BME280;8419;52.358;9.752;2024-01-07T05:22:46;101436.00;;;8.51;43.95
16613;BME280;8419;52.358;9.752;2024-01-07T05:25:31;101441.00;;;8.51;43.87
16613;BME280;8419;52.358;9.752;2024-01-07T05:28:17;101438.00;;;8.49;43.89
16613;BME280;8419;52.358;9.752;2024-01-07T05:31:05;101455.00;;;8.50;43.83
16613;BME280;8419;52.358;9.752;2024-01-07T05:33:58;101444.00;;;8.48;43.78
16613;BME280;8419;52.358;9.752;2024-01-07T05:36:44;101452.00;;;8.48;43.78
16613;BME280;8419;52.358;9.752;2024-01-07T05:39:29;101459.00;;;8.46;43.80
16613;BME280;8419;52.358;9.752;2024-01-07T05:42:17;101464.00;;;8.47;43.75
16613;BME280;8419;52.358;9.752;2024-01-07T05:45:02;101467.00;;;8.49;43.67
16613;BME280;8419;52.358;9.752;2024-01-07T05:47:48;101465.00;;;8.48;43.54
16613;BME280;8419;52.358;9.752;2024-01-07T05:50:33;101475.00;;;8.43;43.56
16613;BME280;8419;52.358;9.752;2024-01-07T05:53:18;101475.00;;;8.40;43.55
16613;BME280;8419;52.358;9.752;2024-01-07T05:56:05;101479.00;;;8.36;43.54
16613;BME280;8419;52.358;9.752;2024-01-07T05:58:51;101484.00;;;8.33;43.56
16613;BME280;8419;52.358;9.752;2024-01-07T06:01:36;101487.00;;;8.31;43.47
16613;BME280;8419;52.358;9.752;2024-01-07T06:04:21;101483.00;;;8.25;43.50
16613;BME280;8419;52.358;9.752;2024-01-07T06:07:06;101491.00;;;8.18;43.52
16613;BME280;8419;52.358;9.752;2024-01-07T06:09:52;101503.00;;;8.08;43.53
16613;BME280;8419;52.358;9.752;2024-01-07T06:12:37;101500.00;;;7.99;43.52
16613;BME280;8419;52.358;9.752;2024-01-07T06:15:22;101507.00;;;7.89;43.54
16613;BME280;8419;52.358;9.752;2024-01-07T06:18:08;101511.00;;;7.80;43.51
16613;BME280;8419;52.358;9.752;2024-01-07T06:20:54;101520.00;;;7.74;43.48
16613;BME280;8419;52.358;9.752;2024-01-07T06:23:39;101518.00;;;7.69;43.48
16613;BME280;8419;52.358;9.752;2024-01-07T06:26:24;101526.00;;;7.65;43.43
16613;BME280;8419;52.358;9.752;2024-01-07T06:29:09;101532.00;;;7.62;43.37
16613;BME280;8419;52.358;9.752;2024-01-07T06:31:55;101535.00;;;7.55;43.42
16613;BME280;8419;52.358;9.752;2024-01-07T06:34:40;101544.00;;;7.48;43.47
16613;BME280;8419;52.358;9.752;2024-01-07T06:37:26;101552.00;;;7.40;43.39
16613;BME280;8419;52.358;9.752;2024-01-07T06:40:16;101549.00;;;7.32;43.43
16613;BME280;8419;52.358;9.752;2024-01-07T06:43:01;101559.00;;;7.23;43.50
16613;BME280;8419;52.358;9.752;2024-01-07T06:45:46;101563.00;;;7.21;43.49
16613;BME280;8419;52.358;9.752;2024-01-07T06:48:31;101582.00;;;7.27;43.43
16613;BME280;8419;52.358;9.752;2024-01-07T06:51:16;101575.00;;;7.27;43.45
16613;BME280;8419;52.358;9.752;2024-01-07T06:54:01;101588.00;;;7.27;43.39
16613;BME280;8419;52.358;9.752;2024-01-07T06:56:47;101591.00;;;7.26;43.35
16613;BME280;8419;52.358;9.752;2024-01-07T06:59:33;101589.00;;;7.20;43.35
16613;BME280;8419;52.358;9.752;2024-01-07T07:02:19;101607.00;;;7.17;43.35
16613;BME280;8419;52.358;9.752;2024-01-07T07:05:07;101604.00;;;7.10;43.31
16613;BME280;8419;52.358;9.752;2024-01-07T07:07:53;101610.00;;;7.05;43.31
16613;BME280;8419;52.358;9.752;2024-01-07T07:10:38;101624.00;;;6.97;43.31
16613;BME280;8419;52.358;9.752;2024-01-07T07:13:24;101620.00;;;6.92;43.36
16613;BME280;8419;52.358;9.752;2024-01-07T07:16:09;101633.00;;;6.92;43.36
16613;BME280;8419;52.358;9.752;2024-01-07T07:18:54;101637.00;;;6.93;43.35
16613;BME280;8419;52.358;9.752;2024-01-07T07:21:40;101640.00;;;6.94;43.31
16613;BME280;8419;52.358;9.752;2024-01-07T07:24:27;101636.00;;;6.98;43.25
16613;BME280;8419;52.358;9.752;2024-01-07T07:27:12;101630.00;;;6.99;43.25
16613;BME280;8419;52.358;9.752;2024-01-07T07:29:58;101647.00;;;6.98;43.26
16613;BME280;8419;52.358;9.752;2024-01-07T07:32:43;101647.00;;;6.96;43.29
16613;BME280;8419;52.358;9.752;2024-01-07T07:35:29;101643.00;;;6.98;43.26
16613;BME280;8419;52.358;9.752;2024-01-07T07:38:14;101651.00;;;6.99;43.21
16613;BME280;8419;52.358;9.752;2024-01-07T07:41:00;101664.00;;;7.06;43.16
16613;BME280;8419;52.358;9.752;2024-01-07T07:43:46;101663.00;;;7.14;43.06
16613;BME280;8419;52.358;9.752;2024-01-07T07:46:32;101671.00;;;7.20;43.04
16613;BME280;8419;52.358;9.752;2024-01-07T07:49:17;101675.00;;;7.29;42.95
16613;BME280;8419;52.358;9.752;2024-01-07T07:52:03;101684.00;;;7.34;42.90
16613;BME280;8419;52.358;9.752;2024-01-07T07:54:48;101687.00;;;7.37;42.91
16613;BME280;8419;52.358;9.752;2024-01-07T07:57:34;101693.00;;;7.49;42.79
16613;BME280;8419;52.358;9.752;2024-01-07T08:00:20;101693.00;;;7.52;42.75
16613;BME280;8419;52.358;9.752;2024-01-07T08:03:06;101700.00;;;7.56;42.71
16613;BME280;8419;52.358;9.752;2024-01-07T08:05:52;101698.00;;;7.61;42.65
16613;BME280;8419;52.358;9.752;2024-01-07T08:08:37;101698.00;;;7.67;42.61
16613;BME280;8419;52.358;9.752;2024-01-07T08:11:22;101713.00;;;7.70;42.59
16613;BME280;8419;52.358;9.752;2024-01-07T08:14:12;101712.00;;;7.75;42.58
16613;BME280;8419;52.358;9.752;2024-01-07T08:16:57;101710.00;;;7.76;42.62
16613;BME280;8419;52.358;9.752;2024-01-07T08:19:43;101720.00;;;7.75;42.67
16613;BME280;8419;52.358;9.752;2024-01-07T08:22:28;101723.00;;;7.78;42.65
16613;BME280;8419;52.358;9.752;2024-01-07T08:25:14;101732.00;;;7.85;42.57
16613;BME280;8419;52.358;9.752;2024-01-07T08:28:00;101736.00;;;7.92;42.41
16613;BME280;8419;52.358;9.752;2024-01-07T08:30:45;101737.00;;;7.96;42.36
16613;BME280;8419;52.358;9.752;2024-01-07T08:33:30;101731.00;;;8.00;42.26
16613;BME280;8419;52.358;9.752;2024-01-07T08:36:18;101735.00;;;8.01;42.26
16613;BME280;8419;52.358;9.752;2024-01-07T08:39:03;101736.00;;;8.03;42.21
16613;BME280;8419;52.358;9.752;2024-01-07T08:41:51;101736.00;;;8.05;42.17
16613;BME280;8419;52.358;9.752;2024-01-07T08:44:36;101739.00;;;8.10;42.13
16613;BME280;8419;52.358;9.752;2024-01-07T08:47:24;101755.00;;;8.16;42.12
16613;BME280;8419;52.358;9.752;2024-01-07T08:50:10;101759.00;;;8.24;42.00
16613;BME280;8419;52.358;9.752;2024-01-07T08:52:55;101754.00;;;8.28;41.99
16613;BME280;8419;52.358;9.752;2024-01-07T08:55:41;101758.00;;;8.30;41.96
16613;BME280;8419;52.358;9.752;2024-01-07T08:58:27;101765.00;;;8.31;42.01
16613;BME280;8419;52.358;9.752;2024-01-07T09:01:12;101758.00;;;8.36;41.93
16613;BME280;8419;52.358;9.752;2024-01-07T09:03:59;101764.00;;;8.36;41.93
16613;BME280;8419;52.358;9.752;2024-01-07T09:06:44;101766.00;;;8.41;41.89
16613;BME280;8419;52.358;9.752;2024-01-07T09:09:30;101771.00;;;8.45;41.86
16613;BME280;8419;52.358;9.752;2024-01-07T09:12:17;101784.00;;;8.45;41.85
16613;BME280;8419;52.358;9.752;2024-01-07T09:15:06;101785.00;;;8.47;41.83
16613;BME280;8419;52.358;9.752;2024-01-07T09:17:53;101787.00;;;8.51;41.79
16613;BME280;8419;52.358;9.752;2024-01-07T09:20:38;101782.00;;;8.52;41.74
16613;BME280;8419;52.358;9.752;2024-01-07T09:23:23;101791.00;;;8.58;41.69
16613;BME280;8419;52.358;9.752;2024-01-07T09:26:11;101800.00;;;8.57;41.70
16613;BME280;8419;52.358;9.752;2024-01-07T09:28:56;101787.00;;;8.59;41.67
16613;BME280;8419;52.358;9.752;2024-01-07T09:31:42;101791.00;;;8.65;41.58
16613;BME280;8419;52.358;9.752;2024-01-07T09:34:28;101798.00;;;8.69;41.53
16613;BME280;8419;52.358;9.752;2024-01-07T09:37:13;101809.00;;;8.69;41.52
16613;BME280;8419;52.358;9.752;2024-01-07T09:39:59;101807.00;;;8.65;41.55
16613;BME280;8419;52.358;9.752;2024-01-07T09:42:45;101813.00;;;8.67;41.57
16613;BME280;8419;52.358;9.752;2024-01-07T09:45:31;101807.00;;;8.68;41.54
16613;BME280;8419;52.358;9.752;2024-01-07T09:48:17;101807.00;;;8.71;41.52
16613;BME280;8419;52.358;9.752;2024-01-07T09:51:03;101810.00;;;8.76;41.46
16613;BME280;8419;52.358;9.752;2024-01-07T09:53:54;101814.00;;;8.78;41.41
16613;BME280;8419;52.358;9.752;2024-01-07T09:56:48;101813.00;;;8.84;41.34
16613;BME280;8419;52.358;9.752;2024-01-07T09:59:35;101811.00;;;9.35;40.26
16613;BME280;8419;52.358;9.752;2024-01-07T10:02:21;101820.00;;;9.45;40.10
16613;BME280;8419;52.358;9.752;2024-01-07T10:05:08;101820.00;;;9.50;40.00
16613;BME280;8419;52.358;9.752;2024-01-07T10:07:55;101815.00;;;9.56;39.92
16613;BME280;8419;52.358;9.752;2024-01-07T10:10:42;101822.00;;;9.63;39.87
16613;BME280;8419;52.358;9.752;2024-01-07T10:13:28;101816.00;;;9.67;39.85
16613;BME280;8419;52.358;9.752;2024-01-07T10:16:13;101823.00;;;9.14;40.92
16613;BME280;8419;52.358;9.752;2024-01-07T10:18:59;101814.00;;;9.09;41.02
16613;BME280;8419;52.358;9.752;2024-01-07T10:21:45;101829.00;;;9.02;41.13
16613;BME280;8419;52.358;9.752;2024-01-07T10:24:36;101831.00;;;9.00;41.17
16613;BME280;8419;52.358;9.752;2024-01-07T10:27:23;101820.00;;;9.06;41.12
16613;BME280;8419;52.358;9.752;2024-01-07T10:30:12;101817.00;;;9.08;41.11
16613;BME280;8419;52.358;9.752;2024-01-07T10:32:59;101821.00;;;9.08;41.08
16613;BME280;8419;52.358;9.752;2024-01-07T10:35:51;101818.00;;;9.11;41.06
16613;BME280;8419;52.358;9.752;2024-01-07T10:38:39;101811.00;;;9.15;41.00
16613;BME280;8419;52.358;9.752;2024-01-07T10:41:25;101806.00;;;9.15;40.97
16613;BME280;8419;52.358;9.752;2024-01-07T10:44:12;101811.00;;;9.15;40.98
16613;BME280;8419;52.358;9.752;2024-01-07T10:46:58;101815.00;;;9.19;40.98
16613;BME280;8419;52.358;9.752;2024-01-07T10:49:44;101812.00;;;9.18;40.96
16613;BME280;8419;52.358;9.752;2024-01-07T10:52:36;101816.00;;;9.19;41.02
16613;BME280;8419;52.358;9.752;2024-01-07T10:55:26;101821.00;;;9.18;40.95
16613;BME280;8419;52.358;9.752;2024-01-07T10:58:16;101822.00;;;9.17;40.97
16613;BME280;8419;52.358;9.752;2024-01-07T11:01:10;101829.00;;;9.19;40.95
16613;BME280;8419;52.358;9.752;2024-01-07T11:04:01;101828.00;;;9.23;40.91
16613;BME280;8419;52.358;9.752;2024-01-07T11:06:55;101831.00;;;9.24;40.83
16613;BME280;8419;52.358;9.752;2024-01-07T11:09:51;101822.00;;;9.26;40.78
16613;BME280;8419;52.358;9.752;2024-01-07T11:12:40;101835.00;;;9.24;40.83
16613;BME280;8419;52.358;9.752;2024-01-07T11:15:51;101829.00;;;9.27;40.81
16613;BME280;8419;52.358;9.752;2024-01-07T11:18:46;101826.00;;;9.33;40.76
16613;BME280;8419;52.358;9.752;2024-01-07T11:21:34;101825.00;;;9.15;41.02
16613;BME280;8419;52.358;9.752;2024-01-07T11:24:39;101824.00;;;9.15;40.95
16613;BME280;8419;52.358;9.752;2024-01-07T11:27:31;101821.00;;;9.21;40.96
16613;BME280;8419;52.358;9.752;2024-01-07T11:30:19;101829.00;;;9.19;40.99
16613;BME280;8419;52.358;9.752;2024-01-07T11:33:05;101827.00;;;9.16;41.01
16613;BME280;8419;52.358;9.752;2024-01-07T11:35:57;101825.00;;;9.15;41.06
16613;BME280;8419;52.358;9.752;2024-01-07T11:38:47;101825.00;;;9.18;41.05
16613;BME280;8419;52.358;9.752;2024-01-07T11:41:34;101821.00;;;9.29;40.84
16613;BME280;8419;52.358;9.752;2024-01-07T11:44:20;101826.00;;;9.27;40.85
16613;BME280;8419;52.358;9.752;2024-01-07T11:47:06;101822.00;;;9.23;40.88
16613;BME280;8419;52.358;9.752;2024-01-07T11:49:52;101823.00;;;9.19;40.94
16613;BME280;8419;52.358;9.752;2024-01-07T11:52:38;101831.00;;;9.19;40.97
16613;BME280;8419;52.358;9.752;2024-01-07T11:55:25;101829.00;;;9.17;40.98
16613;BME280;8419;52.358;9.752;2024-01-07T11:58:11;101832.00;;;9.13;41.00
16613;BME280;8419;52.358;9.752;2024-01-07T12:00:56;101831.00;;;9.16;41.01
16613;BME280;8419;52.358;9.752;2024-01-07T12:03:43;101827.00;;;9.21;41.01
16613;BME280;8419;52.358;9.752;2024-01-07T12:06:28;101821.00;;;9.18;41.12
16613;BME280;8419;52.358;9.752;2024-01-07T12:09:17;101823.00;;;9.22;41.14
16613;BME280;8419;52.358;9.752;2024-01-07T12:12:04;101824.00;;;9.27;41.10
16613;BME280;8419;52.358;9.752;2024-01-07T12:14:49;101828.00;;;9.32;41.08
16613;BME280;8419;52.358;9.752;2024-01-07T12:17:34;101825.00;;;9.46;40.89
16613;BME280;8419;52.358;9.752;2024-01-07T12:20:20;101825.00;;;9.46;40.99
16613;BME280;8419;52.358;9.752;2024-01-07T12:23:07;101827.00;;;9.60;40.78
16613;BME280;8419;52.358;9.752;2024-01-07T12:25:53;101833.00;;;9.65;40.73
16613;BME280;8419;52.358;9.752;2024-01-07T12:28:39;101829.00;;;9.67;40.69
16613;BME280;8419;52.358;9.752;2024-01-07T12:31:24;101828.00;;;9.60;40.73
16613;BME280;8419;52.358;9.752;2024-01-07T12:34:12;101827.00;;;9.63;40.72
16613;BME280;8419;52.358;9.752;2024-01-07T12:36:59;101831.00;;;9.65;40.72
16613;BME280;8419;52.358;9.752;2024-01-07T12:39:46;101832.00;;;9.61;40.77
16613;BME280;8419;52.358;9.752;2024-01-07T12:42:31;101830.00;;;9.63;40.78
16613;BME280;8419;52.358;9.752;2024-01-07T12:45:17;101827.00;;;9.58;40.78
16613;BME280;8419;52.358;9.752;2024-01-07T12:48:03;101834.00;;;9.58;40.88
16613;BME280;8419;52.358;9.752;2024-01-07T12:50:50;101834.00;;;9.64;40.87
16613;BME280;8419;52.358;9.752;2024-01-07T12:53:36;101835.00;;;9.71;40.76
16613;BME280;8419;52.358;9.752;2024-01-07T12:56:24;101843.00;;;9.75;40.64
16613;BME280;8419;52.358;9.752;2024-01-07T12:59:09;101843.00;;;9.72;40.71
16613;BME280;8419;52.358;9.752;2024-01-07T13:01:58;101840.00;;;9.71;40.77
16613;BME280;8419;52.358;9.752;2024-01-07T13:04:43;101847.00;;;9.75;40.78
16613;BME280;8419;52.358;9.752;2024-01-07T13:07:30;101851.00;;;9.77;40.60
16613;BME280;8419;52.358;9.752;2024-01-07T13:10:16;101843.00;;;9.72;40.71
16613;BME280;8419;52.358;9.752;2024-01-07T13:13:01;101843.00;;;9.75;40.74
16613;BME280;8419;52.358;9.752;2024-01-07T13:15:48;101848.00;;;9.80;40.72
16613;BME280;8419;52.358;9.752;2024-01-07T13:18:35;101847.00;;;9.84;40.64
16613;BME280;8419;52.358;9.752;2024-01-07T13:21:21;101841.00;;;9.84;40.70
16613;BME280;8419;52.358;9.752;2024-01-07T13:24:07;101849.00;;;9.88;40.54
16613;BME280;8419;52.358;9.752;2024-01-07T13:26:52;101846.00;;;9.81;40.62
16613;BME280;8419;52.358;9.752;2024-01-07T13:29:38;101851.00;;;9.88;40.58
16613;BME280;8419;52.358;9.752;2024-01-07T13:32:23;101853.00;;;9.92;40.54
16613;BME280;8419;52.358;9.752;2024-01-07T13:35:09;101853.00;;;9.94;40.53
16613;BME280;8419;52.358;9.752;2024-01-07T13:37:56;101861.00;;;9.89;40.49
16613;BME280;8419;52.358;9.752;2024-01-07T13:40:41;101861.00;;;9.79;40.54
16613;BME280;8419;52.358;9.752;2024-01-07T13:43:27;101858.00;;;9.63;40.70
16613;BME280;8419;52.358;9.752;2024-01-07T13:46:14;101862.00;;;9.57;40.80
16613;BME280;8419;52.358;9.752;2024-01-07T13:49:01;101855.00;;;9.50;40.96
16613;BME280;8419;52.358;9.752;2024-01-07T13:51:50;101856.00;;;9.49;40.93
16613;BME280;8419;52.358;9.752;2024-01-07T13:54:35;101864.00;;;9.40;40.96
16613;BME280;8419;52.358;9.752;2024-01-07T13:57:22;101865.00;;;9.36;40.96
16613;BME280;8419;52.358;9.752;2024-01-07T14:00:10;101866.00;;;9.32;41.02
16613;BME280;8419;52.358;9.752;2024-01-07T14:02:56;101863.00;;;9.33;41.04
16613;BME280;8419;52.358;9.752;2024-01-07T14:05:42;101870.00;;;9.41;40.94
16613;BME280;8419;52.358;9.752;2024-01-07T14:08:27;101872.00;;;9.45;40.88
16613;BME280;8419;52.358;9.752;2024-01-07T14:11:12;101870.00;;;9.45;40.86
16613;BME280;8419;52.358;9.752;2024-01-07T14:13:57;101877.00;;;9.43;40.86
16613;BME280;8419;52.358;9.752;2024-01-07T14:16:43;101872.00;;;9.38;40.95
16613;BME280;8419;52.358;9.752;2024-01-07T14:19:29;101887.00;;;9.36;40.99
16613;BME280;8419;52.358;9.752;2024-01-07T14:22:14;101881.00;;;9.36;40.98
16613;BME280;8419;52.358;9.752;2024-01-07T14:25:01;101892.00;;;9.36;41.01
16613;BME280;8419;52.358;9.752;2024-01-07T14:27:46;101886.00;;;9.28;41.07
16613;BME280;8419;52.358;9.752;2024-01-07T14:30:31;101889.00;;;9.16;41.21
16613;BME280;8419;52.358;9.752;2024-01-07T14:33:17;101889.00;;;9.07;41.30
16613;BME280;8419;52.358;9.752;2024-01-07T14:36:04;101893.00;;;9.01;41.30
16613;BME280;8419;52.358;9.752;2024-01-07T14:38:49;101893.00;;;8.96;41.24
16613;BME280;8419;52.358;9.752;2024-01-07T14:41:35;101897.00;;;8.85;41.30
16613;BME280;8419;52.358;9.752;2024-01-07T14:44:20;101898.00;;;8.78;41.40
16613;BME280;8419;52.358;9.752;2024-01-07T14:47:06;101900.00;;;8.68;41.47
16613;BME280;8419;52.358;9.752;2024-01-07T14:49:51;101907.00;;;8.68;41.46
16613;BME280;8419;52.358;9.752;2024-01-07T14:52:36;101907.00;;;8.65;41.41